Time;durP1;ratioP1;P1;durP2;ratioP2;P2;SDS_P1;SDS_P2;PMS_P1;PMS_P2;Temp;Humidity;BMP_temperature;BMP_pressure;BME280_temperature;BME280_humidity;BME280_pressure;Samples;Min_cycle;Max_cycle;Signal;HPM_P1;HPM_P2
2023/08/17 00:00:40;;;;;;;4.60;2.15;;;23.10;62.70;;;;;;5015760;28;20053;-90
2023/08/17 00:03:07;;;;;;;5.50;2.10;;;23.10;62.70;;;;;;5019845;28;20064;-89
2023/08/17 00:05:35;;;;;;;5.95;2.17;;;23.10;62.80;;;;;;5019685;28;20048;-91
2023/08/17 00:08:02;;;;;;;4.82;2.42;;;23.10;62.80;;;;;;5019738;28;20049;-88
2023/08/17 00:10:29;;;;;;;4.03;2.25;;;23.10;63.00;;;;;;5020752;28;20064;-90
2023/08/17 00:12:58;;;;;;;7.35;2.78;;;23.10;63.00;;;;;;5019562;28;20049;-89
2023/08/17 00:15:25;;;;;;;13.35;3.80;;;23.10;63.10;;;;;;5021475;28;20064;-88
2023/08/17 00:17:53;;;;;;;11.32;4.47;;;23.10;63.10;;;;;;5020598;28;20056;-89
2023/08/17 00:20:20;;;;;;;13.38;5.25;;;23.10;63.20;;;;;;5021017;28;20527;-88
2023/08/17 00:22:47;;;;;;;14.60;5.57;;;23.10;63.20;;;;;;5020637;28;20429;-90
2023/08/17 00:25:15;;;;;;;20.52;6.80;;;23.10;63.30;;;;;;5023937;28;20076;-88
2023/08/17 00:27:42;;;;;;;13.23;5.82;;;23.10;63.40;;;;;;5022594;28;20049;-88
2023/08/17 00:30:12;;;;;;;13.68;6.15;;;23.00;63.50;;;;;;5022883;28;20056;-88
2023/08/17 00:32:39;;;;;;;25.58;7.53;;;23.00;63.70;;;;;;5023888;28;20068;-90
2023/08/17 00:35:08;;;;;;;12.70;6.35;;;23.00;63.80;;;;;;5023731;28;20045;-89
2023/08/17 00:37:35;;;;;;;11.50;6.15;;;23.00;64.00;;;;;;5022761;28;20053;-89
2023/08/17 00:40:02;;;;;;;13.77;6.55;;;23.00;64.20;;;;;;5030570;28;20069;-89
2023/08/17 00:42:30;;;;;;;12.85;5.50;;;23.00;64.30;;;;;;5023181;28;20049;-89
2023/08/17 00:44:57;;;;;;;10.23;4.35;;;23.00;64.50;;;;;;5024787;28;20501;-90
2023/08/17 00:47:26;;;;;;;5.00;3.55;;;22.90;64.50;;;;;;5023394;28;20053;-88
2023/08/17 00:49:53;;;;;;;9.30;4.70;;;22.90;64.60;;;;;;5024600;28;20053;-88
2023/08/17 00:52:21;;;;;;;9.55;5.20;;;23.00;64.70;;;;;;5023392;28;20057;-88
2023/08/17 00:54:48;;;;;;;8.43;4.53;;;23.00;64.70;;;;;;5024238;28;20076;-88
2023/08/17 00:57:16;;;;;;;7.82;3.88;;;23.00;64.70;;;;;;5021088;28;20056;-88
2023/08/17 00:59:44;;;;;;;9.80;4.72;;;23.00;64.70;;;;;;5023963;28;20571;-88
2023/08/17 01:02:11;;;;;;;15.13;5.55;;;23.00;64.70;;;;;;5049868;23;20060;-58
2023/08/17 01:04:40;;;;;;;12.20;6.68;;;23.00;64.80;;;;;;5043927;28;20056;-57
2023/08/17 01:07:07;;;;;;;15.45;7.25;;;23.00;64.80;;;;;;5044295;28;20057;-57
2023/08/17 01:09:34;;;;;;;14.10;7.03;;;23.00;64.80;;;;;;5043558;28;20048;-56
2023/08/17 01:12:09;;;;;;;13.18;7.38;;;23.00;64.90;;;;;;5042551;28;20403;-57
2023/08/17 01:14:44;;;;;;;14.60;7.93;;;23.00;65.10;;;;;;5045248;28;20060;-56
2023/08/17 01:17:18;;;;;;;15.52;7.88;;;23.00;65.30;;;;;;5044077;28;20059;-56
2023/08/17 01:19:48;;;;;;;12.88;7.28;;;22.90;65.40;;;;;;5044127;28;20057;-56
2023/08/17 01:22:18;;;;;;;11.80;6.43;;;22.90;65.50;;;;;;5044205;28;20041;-57
2023/08/17 01:24:47;;;;;;;10.82;6.55;;;22.90;65.50;;;;;;5043969;28;20052;-57
2023/08/17 01:27:14;;;;;;;11.90;6.10;;;22.90;65.60;;;;;;5041793;28;20788;-57
2023/08/17 01:29:42;;;;;;;8.57;6.07;;;23.00;65.70;;;;;;5041912;28;20056;-56
2023/08/17 01:32:16;;;;;;;11.50;6.50;;;22.90;65.70;;;;;;5044235;28;20052;-56
2023/08/17 01:34:50;;;;;;;13.57;7.38;;;22.90;65.80;;;;;;5043735;28;20060;-57
2023/08/17 01:37:20;;;;;;;14.73;6.78;;;22.90;65.80;;;;;;5043318;28;20068;-56
2023/08/17 01:39:53;;;;;;;13.32;6.72;;;23.00;65.90;;;;;;5044030;28;20492;-56
2023/08/17 01:42:21;;;;;;;11.25;5.97;;;23.00;65.90;;;;;;5042321;28;20056;-57
2023/08/17 01:44:48;;;;;;;11.07;6.03;;;23.00;65.80;;;;;;5044575;28;20087;-56
2023/08/17 01:47:16;;;;;;;11.43;6.15;;;23.00;65.90;;;;;;5043800;28;20045;-58
2023/08/17 01:49:43;;;;;;;13.18;6.95;;;23.00;65.90;;;;;;5041757;28;20049;-58
2023/08/17 01:52:10;;;;;;;11.90;7.03;;;23.00;65.90;;;;;;5043164;28;20060;-58
2023/08/17 01:54:37;;;;;;;13.38;6.57;;;23.00;65.90;;;;;;5043766;28;20055;-57
2023/08/17 01:57:06;;;;;;;14.30;6.80;;;22.90;65.90;;;;;;5041520;28;20064;-57
2023/08/17 01:59:33;;;;;;;13.85;7.85;;;23.00;65.90;;;;;;5043427;28;20049;-57
2023/08/17 02:02:00;;;;;;;10.90;7.45;;;23.00;65.90;;;;;;5027765;28;20061;-57
2023/08/17 02:04:28;;;;;;;13.93;7.88;;;23.00;65.90;;;;;;5023127;28;20440;-57
2023/08/17 02:06:55;;;;;;;14.32;7.95;;;23.00;65.90;;;;;;5023822;28;21883;-57
2023/08/17 02:09:22;;;;;;;13.27;7.43;;;23.00;65.90;;;;;;5023415;28;20476;-57
2023/08/17 02:11:50;;;;;;;15.00;7.93;;;23.00;65.90;;;;;;5022160;28;20054;-57
2023/08/17 02:14:18;;;;;;;15.65;8.63;;;23.00;66.00;;;;;;5023467;28;20068;-57
2023/08/17 02:16:45;;;;;;;13.32;7.88;;;23.00;66.00;;;;;;5021880;28;20049;-57
2023/08/17 02:19:12;;;;;;;15.25;8.55;;;23.00;66.10;;;;;;5023176;28;20041;-57
2023/08/17 02:21:40;;;;;;;16.30;8.88;;;23.00;66.20;;;;;;5022350;28;20068;-57
2023/08/17 02:24:07;;;;;;;16.70;9.55;;;23.00;66.30;;;;;;5023326;28;20053;-58
2023/08/17 02:26:35;;;;;;;13.10;8.00;;;23.00;66.40;;;;;;5021792;28;20579;-57
2023/08/17 02:29:02;;;;;;;16.25;9.10;;;23.00;66.40;;;;;;5021647;28;20041;-58
2023/08/17 02:31:30;;;;;;;17.50;9.25;;;23.00;66.50;;;;;;5022425;28;20049;-57
2023/08/17 02:34:00;;;;;;;17.05;10.13;;;23.00;66.50;;;;;;5021984;28;20057;-58
2023/08/17 02:36:27;;;;;;;13.23;7.50;;;23.00;66.50;;;;;;5023396;28;20060;-57
2023/08/17 02:38:55;;;;;;;21.00;7.28;;;23.00;66.50;;;;;;5022588;28;20058;-57
2023/08/17 02:41:22;;;;;;;13.77;7.50;;;23.00;66.60;;;;;;5021575;28;20394;-56
2023/08/17 02:43:49;;;;;;;12.75;7.22;;;23.00;66.60;;;;;;5021780;28;20416;-59
2023/08/17 02:46:16;;;;;;;15.10;8.32;;;23.00;66.70;;;;;;5021230;28;20064;-59
2023/08/17 02:48:45;;;;;;;14.88;7.63;;;23.00;66.70;;;;;;5023113;28;20354;-58
2023/08/17 02:51:13;;;;;;;13.25;6.93;;;23.00;66.70;;;;;;5023781;28;20069;-57
2023/08/17 02:53:40;;;;;;;22.85;8.57;;;23.00;66.70;;;;;;5022542;28;20068;-57
2023/08/17 02:56:11;;;;;;;15.95;8.35;;;23.00;66.70;;;;;;5021952;28;20057;-58
2023/08/17 02:58:40;;;;;;;16.05;8.10;;;23.00;66.60;;;;;;5020975;28;20053;-58
2023/08/17 03:01:07;;;;;;;17.00;8.13;;;23.00;66.60;;;;;;5023106;28;20053;-56
2023/08/17 03:03:35;;;;;;;16.45;8.52;;;23.00;66.50;;;;;;5023018;28;20528;-56
2023/08/17 03:06:04;;;;;;;17.75;8.45;;;23.00;66.50;;;;;;5022285;28;20056;-58
2023/08/17 03:08:31;;;;;;;16.40;8.93;;;23.00;66.50;;;;;;5020993;28;20053;-57
2023/08/17 03:10:58;;;;;;;18.92;9.05;;;22.90;66.40;;;;;;5023260;28;20378;-57
2023/08/17 03:13:26;;;;;;;16.73;8.15;;;23.00;66.40;;;;;;5021130;28;20061;-57
2023/08/17 03:15:53;;;;;;;16.63;8.93;;;22.90;66.30;;;;;;5022442;28;20049;-57
2023/08/17 03:18:20;;;;;;;18.23;9.05;;;22.90;66.30;;;;;;5023604;28;20461;-57
2023/08/17 03:20:47;;;;;;;18.38;9.00;;;22.90;66.20;;;;;;5022983;28;20057;-57
2023/08/17 03:23:16;;;;;;;16.45;9.45;;;22.90;66.20;;;;;;5021557;28;20049;-57
2023/08/17 03:25:43;;;;;;;23.33;9.50;;;22.90;66.20;;;;;;5021419;28;20488;-57
2023/08/17 03:28:10;;;;;;;13.32;7.95;;;22.90;66.10;;;;;;5019316;28;20049;-57
2023/08/17 03:30:37;;;;;;;16.33;7.47;;;22.90;66.10;;;;;;5020755;28;20080;-59
2023/08/17 03:33:05;;;;;;;12.80;8.27;;;22.90;66.20;;;;;;5021389;28;20045;-57
2023/08/17 03:35:32;;;;;;;15.32;8.25;;;22.90;66.20;;;;;;5022969;28;20057;-58
2023/08/17 03:37:59;;;;;;;15.27;8.30;;;22.90;66.20;;;;;;5022749;28;20050;-55
2023/08/17 03:40:28;;;;;;;13.70;8.55;;;22.90;66.20;;;;;;5022811;28;20087;-57
2023/08/17 03:42:55;;;;;;;15.90;8.90;;;22.90;66.90;;;;;;5019719;28;20394;-59
2023/08/17 03:45:23;;;;;;;14.07;8.60;;;22.90;66.00;;;;;;5022537;28;20508;-56
2023/08/17 03:47:50;;;;;;;10.50;6.72;;;22.80;65.80;;;;;;5022183;28;20053;-57
2023/08/17 03:50:18;;;;;;;13.98;7.38;;;22.80;66.00;;;;;;5022422;28;20053;-59
2023/08/17 03:52:45;;;;;;;12.18;7.90;;;22.80;66.10;;;;;;5021973;28;20048;-57
2023/08/17 03:55:13;;;;;;;13.55;7.15;;;22.80;66.20;;;;;;5021146;28;20057;-58
2023/08/17 03:57:41;;;;;;;11.05;6.97;;;22.80;66.30;;;;;;5022336;28;20069;-57
2023/08/17 04:00:10;;;;;;;10.27;6.78;;;22.80;66.40;;;;;;5022296;28;20397;-57
2023/08/17 04:02:38;;;;;;;11.63;6.68;;;22.80;66.40;;;;;;5023719;28;20061;-56
2023/08/17 04:05:06;;;;;;;11.95;7.30;;;22.70;66.40;;;;;;5023110;28;21243;-58
2023/08/17 04:07:33;;;;;;;8.75;6.35;;;22.70;66.40;;;;;;5021387;28;20049;-57
2023/08/17 04:10:00;;;;;;;62.47;34.97;;;22.70;66.50;;;;;;5022211;28;20050;-59
2023/08/17 04:12:28;;;;;;;56.10;33.25;;;22.70;66.50;;;;;;5020555;28;20053;-58
2023/08/17 04:14:56;;;;;;;29.08;17.63;;;22.70;66.50;;;;;;5021806;28;20053;-57
2023/08/17 04:17:24;;;;;;;15.52;8.80;;;22.70;66.50;;;;;;5021607;28;20156;-57
2023/08/17 04:19:51;;;;;;;12.77;6.82;;;22.70;66.50;;;;;;5022419;28;20512;-57
2023/08/17 04:22:18;;;;;;;14.20;6.93;;;22.70;66.40;;;;;;5021153;28;20141;-57
2023/08/17 04:24:45;;;;;;;9.25;6.28;;;22.70;66.40;;;;;;5018067;28;20409;-57
2023/08/17 04:27:14;;;;;;;14.20;6.78;;;22.70;66.50;;;;;;5021775;28;20057;-56
2023/08/17 04:29:41;;;;;;;12.35;6.82;;;22.70;66.60;;;;;;5021718;28;20049;-57
2023/08/17 04:32:15;;;;;;;12.27;6.70;;;22.70;66.70;;;;;;5020938;28;20053;-57
2023/08/17 04:34:42;;;;;;;7.55;5.85;;;22.70;66.70;;;;;;5021734;28;20065;-57
2023/08/17 04:37:10;;;;;;;10.30;6.07;;;22.70;66.70;;;;;;5020844;28;20053;-57
2023/08/17 04:39:37;;;;;;;12.43;7.38;;;22.70;66.70;;;;;;5020687;28;20045;-57
2023/08/17 04:42:05;;;;;;;11.15;6.95;;;22.70;66.70;;;;;;5017447;28;20053;-57
2023/08/17 04:44:32;;;;;;;10.20;7.00;;;22.70;66.70;;;;;;5022580;28;20389;-58
2023/08/17 04:46:59;;;;;;;9.52;6.55;;;22.70;66.80;;;;;;5021574;28;20053;-56
2023/08/17 04:49:28;;;;;;;12.80;7.60;;;22.70;66.90;;;;;;5020605;28;20129;-57
2023/08/17 04:51:55;;;;;;;12.50;7.40;;;22.70;66.80;;;;;;5020288;28;20046;-58
2023/08/17 04:54:22;;;;;;;11.27;6.78;;;22.70;66.80;;;;;;5018702;28;20105;-59
2023/08/17 04:56:50;;;;;;;11.05;6.68;;;22.70;66.70;;;;;;5019777;28;20049;-57
2023/08/17 04:59:17;;;;;;;9.90;6.03;;;22.60;66.60;;;;;;5019323;28;20057;-57
2023/08/17 05:01:44;;;;;;;9.60;6.25;;;22.70;66.70;;;;;;5022196;28;20054;-57
2023/08/17 05:04:11;;;;;;;9.35;6.47;;;22.70;66.70;;;;;;5020875;28;20052;-57
2023/08/17 05:06:40;;;;;;;11.60;6.55;;;22.70;66.70;;;;;;5020840;28;21280;-58
2023/08/17 05:09:07;;;;;;;13.05;6.45;;;22.70;66.70;;;;;;5021665;28;20072;-58
2023/08/17 05:11:35;;;;;;;12.07;7.05;;;22.70;66.80;;;;;;5024653;28;20068;-57
2023/08/17 05:14:02;;;;;;;12.82;6.43;;;22.70;66.80;;;;;;5025179;28;20674;-58
2023/08/17 05:16:29;;;;;;;9.82;6.45;;;22.70;66.80;;;;;;5026178;28;20068;-56
2023/08/17 05:18:58;;;;;;;8.02;5.43;;;22.70;66.70;;;;;;5023263;28;20449;-57
2023/08/17 05:21:25;;;;;;;5.88;4.60;;;22.70;66.60;;;;;;5026085;28;20064;-56
2023/08/17 05:23:54;;;;;;;6.97;4.30;;;22.70;66.50;;;;;;5024699;28;20489;-57
2023/08/17 05:26:21;;;;;;;6.18;4.60;;;22.70;66.30;;;;;;5023700;28;20053;-56
2023/08/17 05:28:49;;;;;;;6.28;4.80;;;22.70;66.10;;;;;;5024477;28;20045;-57
2023/08/17 05:31:17;;;;;;;9.32;4.43;;;22.70;66.10;;;;;;5025633;28;20061;-56
2023/08/17 05:33:44;;;;;;;6.53;4.53;;;22.70;65.90;;;;;;5025817;28;20054;-56
2023/08/17 05:36:13;;;;;;;8.50;4.40;;;22.70;65.90;;;;;;5024044;28;20058;-58
2023/08/17 05:38:40;;;;;;;8.05;4.30;;;22.70;65.80;;;;;;5022898;28;20053;-58
2023/08/17 05:41:09;;;;;;;6.07;3.97;;;22.60;65.70;;;;;;5024150;28;20049;-57
2023/08/17 05:43:36;;;;;;;5.50;3.70;;;22.70;65.80;;;;;;5023342;28;20412;-58
2023/08/17 05:46:03;;;;;;;5.88;3.97;;;22.70;65.80;;;;;;5023967;28;20076;-56
2023/08/17 05:48:31;;;;;;;7.95;4.10;;;22.60;65.80;;;;;;5024557;28;20072;-58
2023/08/17 05:50:58;;;;;;;4.75;3.53;;;22.60;65.90;;;;;;5024236;28;20046;-58
2023/08/17 05:53:25;;;;;;;10.43;4.05;;;22.60;66.00;;;;;;5023900;28;20057;-58
2023/08/17 05:55:52;;;;;;;6.82;3.92;;;22.60;66.00;;;;;;5023349;28;20084;-57
2023/08/17 05:58:21;;;;;;;8.27;4.70;;;22.60;66.00;;;;;;5021857;28;20446;-57
2023/08/17 06:00:49;;;;;;;6.65;4.30;;;22.70;66.10;;;;;;5023484;28;20069;-58
2023/08/17 06:03:16;;;;;;;7.70;4.90;;;22.70;66.20;;;;;;5023228;28;20065;-58
2023/08/17 06:05:44;;;;;;;9.20;5.38;;;22.70;66.30;;;;;;5023884;28;20052;-58
2023/08/17 06:08:11;;;;;;;9.73;5.78;;;22.70;66.40;;;;;;5024834;28;20422;-58
2023/08/17 06:10:38;;;;;;;10.38;6.28;;;22.70;66.30;;;;;;5024186;28;20054;-57
2023/08/17 06:13:05;;;;;;;10.00;5.45;;;22.80;66.40;;;;;;5023589;28;20501;-57
2023/08/17 06:15:34;;;;;;;11.10;6.13;;;22.80;66.40;;;;;;5024474;28;20049;-57
2023/08/17 06:18:01;;;;;;;9.32;6.15;;;22.80;66.40;;;;;;5024631;28;20057;-57
2023/08/17 06:20:28;;;;;;;8.35;5.60;;;22.80;66.40;;;;;;5022555;28;20096;-56
2023/08/17 06:22:56;;;;;;;8.13;5.82;;;22.80;66.30;;;;;;5024378;28;20057;-57
2023/08/17 06:25:23;;;;;;;11.38;6.20;;;22.80;66.30;;;;;;5023183;28;20053;-57
2023/08/17 06:51:47;;;;;;;7.63;5.40;;;23.00;65.80;;;;;;5025096;28;20416;-57
2023/08/17 06:54:14;;;;;;;7.80;5.05;;;22.90;65.70;;;;;;5022713;28;20057;-58
2023/08/17 06:56:41;;;;;;;7.57;5.00;;;22.90;65.80;;;;;;5021821;28;20061;-58
2023/08/17 06:59:08;;;;;;;7.75;5.45;;;22.90;65.90;;;;;;5022621;28;20050;-58
2023/08/17 07:01:36;;;;;;;7.50;5.43;;;22.90;65.90;;;;;;5023673;28;20053;-57
2023/08/17 07:04:03;;;;;;;7.78;5.25;;;22.90;66.00;;;;;;5022346;28;20049;-59
2023/08/17 07:06:31;;;;;;;9.20;5.40;;;22.90;66.00;;;;;;5024102;28;20053;-57
2023/08/17 07:08:59;;;;;;;7.15;5.25;;;22.90;66.10;;;;;;5022620;28;20045;-57
2023/08/17 07:11:26;;;;;;;7.75;4.88;;;22.90;66.20;;;;;;5022093;28;20164;-58
2023/08/17 07:13:54;;;;;;;7.88;5.43;;;22.90;66.20;;;;;;5022345;28;20053;-58
2023/08/17 07:16:21;;;;;;;6.68;4.85;;;22.90;66.40;;;;;;5022715;28;20053;-58
2023/08/17 07:18:48;;;;;;;6.53;4.88;;;23.00;66.50;;;;;;5022658;28;20052;-58
2023/08/17 07:21:15;;;;;;;7.15;4.82;;;23.00;66.50;;;;;;5022128;28;20056;-58
2023/08/17 07:23:46;;;;;;;7.47;5.32;;;23.00;66.50;;;;;;5021848;28;20699;-58
2023/08/17 07:26:15;;;;;;;8.73;5.72;;;23.00;66.60;;;;;;5020883;28;20057;-57
2023/08/17 07:28:42;;;;;;;6.75;4.82;;;23.00;66.30;;;;;;5022355;28;20054;-57
2023/08/17 07:31:10;;;;;;;6.95;5.03;;;23.00;66.20;;;;;;5021937;28;20041;-58
2023/08/17 07:33:37;;;;;;;8.55;4.70;;;23.00;66.30;;;;;;5021897;28;20057;-58
2023/08/17 07:36:04;;;;;;;5.97;4.53;;;23.00;66.50;;;;;;5020728;28;20059;-58
2023/08/17 07:38:32;;;;;;;6.93;5.30;;;23.10;66.60;;;;;;5020391;28;20057;-58
2023/08/17 07:41:00;;;;;;;9.18;5.43;;;23.00;66.60;;;;;;5021649;28;20504;-58
2023/08/17 07:43:28;;;;;;;9.70;6.05;;;23.10;66.70;;;;;;5019926;28;20060;-57
2023/08/17 07:45:56;;;;;;;10.18;5.47;;;23.10;66.80;;;;;;5024071;28;20171;-58
2023/08/17 07:48:23;;;;;;;6.53;4.95;;;23.10;66.90;;;;;;5023509;28;20067;-58
2023/08/17 07:50:51;;;;;;;5.90;4.70;;;23.10;67.10;;;;;;5022140;28;20420;-58
2023/08/17 07:53:18;;;;;;;7.03;5.00;;;23.10;67.30;;;;;;5022489;28;20063;-58
2023/08/17 07:55:46;;;;;;;7.20;4.63;;;23.10;68.20;;;;;;5022248;28;20052;-58
2023/08/17 07:58:13;;;;;;;7.53;4.47;;;23.10;67.60;;;;;;5020424;28;20088;-58
2023/08/17 08:00:42;;;;;;;6.15;4.25;;;23.20;67.70;;;;;;5021189;28;20061;-57
2023/08/17 08:03:10;;;;;;;9.82;4.25;;;23.20;67.70;;;;;;5021641;28;20451;-57
2023/08/17 08:05:37;;;;;;;6.30;4.20;;;23.20;67.70;;;;;;5021581;28;20080;-57
2023/08/17 08:08:05;;;;;;;5.68;4.07;;;23.30;67.90;;;;;;5023114;28;20062;-58
2023/08/17 08:10:32;;;;;;;6.05;3.80;;;23.30;67.90;;;;;;5021777;28;20409;-58
2023/08/17 08:13:00;;;;;;;4.25;3.25;;;23.30;68.00;;;;;;5020908;28;20045;-57
2023/08/17 08:15:27;;;;;;;4.70;3.05;;;23.40;68.10;;;;;;5022961;28;20064;-57
2023/08/17 08:17:55;;;;;;;3.53;2.33;;;23.50;68.10;;;;;;5021777;28;20054;-56
2023/08/17 08:20:23;;;;;;;3.20;2.30;;;23.50;68.00;;;;;;5021526;28;20505;-56
2023/08/17 08:22:50;;;;;;;2.70;2.50;;;23.50;67.80;;;;;;5021047;28;20053;-57
2023/08/17 08:25:17;;;;;;;2.30;1.83;;;23.60;67.90;;;;;;5021071;28;20466;-57
2023/08/17 08:27:44;;;;;;;2.38;2.17;;;23.60;67.90;;;;;;5019256;28;20049;-56
2023/08/17 08:30:12;;;;;;;1.75;1.65;;;23.70;67.80;;;;;;5020898;28;20057;-56
2023/08/17 08:32:39;;;;;;;2.53;2.17;;;23.80;67.70;;;;;;5020583;28;20060;-58
2023/08/17 08:35:08;;;;;;;2.58;2.00;;;23.80;67.40;;;;;;5021143;28;20421;-57
2023/08/17 08:37:36;;;;;;;2.25;2.05;;;23.80;67.20;;;;;;5020748;28;20482;-56
2023/08/17 08:40:03;;;;;;;2.20;1.88;;;23.90;67.00;;;;;;5022339;28;20053;-57
2023/08/17 08:42:30;;;;;;;2.90;2.00;;;23.90;66.80;;;;;;5021425;28;20416;-58
2023/08/17 08:44:58;;;;;;;3.20;2.38;;;24.00;66.60;;;;;;5024095;28;20588;-57
2023/08/17 08:47:26;;;;;;;2.22;2.03;;;24.00;66.50;;;;;;5024412;28;20061;-57
2023/08/17 08:50:01;;;;;;;3.70;2.13;;;24.00;66.10;;;;;;5025502;28;20049;-58
2023/08/17 08:52:35;;;;;;;2.92;1.80;;;24.00;66.10;;;;;;5024075;28;20053;-57
2023/08/17 08:55:18;;;;;;;3.97;2.10;;;24.10;65.90;;;;;;5026520;28;20072;-56
2023/08/17 08:57:49;;;;;;;3.92;2.20;;;24.10;65.80;;;;;;5023023;28;20523;-56
2023/08/17 09:00:17;;;;;;;4.07;2.42;;;24.20;65.40;;;;;;5024793;28;20053;-58
2023/08/17 09:02:45;;;;;;;4.90;2.30;;;24.20;65.40;;;;;;5025537;28;20053;-57
2023/08/17 09:05:13;;;;;;;2.50;2.30;;;24.20;64.90;;;;;;5025288;28;20591;-58
2023/08/17 09:07:44;;;;;;;3.17;2.47;;;24.20;64.80;;;;;;5024354;28;20057;-57
2023/08/17 09:10:11;;;;;;;2.88;2.22;;;24.20;64.70;;;;;;5024551;28;20040;-57
2023/08/17 09:12:40;;;;;;;3.03;2.67;;;24.20;64.80;;;;;;5023523;28;20507;-57
2023/08/17 09:15:08;;;;;;;4.65;2.28;;;24.30;64.80;;;;;;5025608;28;20495;-57
2023/08/17 09:17:35;;;;;;;4.80;2.50;;;24.20;64.70;;;;;;5024736;28;20058;-58
2023/08/17 09:20:03;;;;;;;4.88;2.85;;;24.30;64.30;;;;;;5022794;28;20504;-58
2023/08/17 09:22:38;;;;;;;4.22;2.53;;;24.40;64.10;;;;;;4984093;28;20045;-57
2023/08/17 09:25:08;;;;;;;6.72;2.80;;;24.40;62.90;;;;;;5024580;28;20463;-56
2023/08/17 09:27:37;;;;;;;3.50;2.22;;;24.30;63.00;;;;;;5024948;28;20061;-56
2023/08/17 09:30:06;;;;;;;4.75;2.60;;;24.30;62.70;;;;;;5024090;28;20488;-59
2023/08/17 09:32:34;;;;;;;2.95;2.30;;;24.30;63.00;;;;;;5023977;28;20046;-56
2023/08/17 09:35:03;;;;;;;2.70;2.50;;;24.30;63.20;;;;;;5025185;28;20053;-57
2023/08/17 09:37:30;;;;;;;3.90;2.50;;;24.30;63.30;;;;;;5019969;28;20049;-56
2023/08/17 09:39:58;;;;;;;2.97;2.47;;;24.30;63.30;;;;;;5024205;28;20124;-57
2023/08/17 09:42:27;;;;;;;4.60;2.55;;;24.40;63.60;;;;;;5022043;28;20102;-57
2023/08/17 09:44:55;;;;;;;4.75;2.47;;;24.40;64.60;;;;;;5024601;28;20469;-56
2023/08/17 09:47:23;;;;;;;2.83;2.53;;;24.40;64.00;;;;;;5022745;28;20970;-56
2023/08/17 09:49:50;;;;;;;5.75;2.38;;;24.40;63.90;;;;;;5024762;28;20061;-57
2023/08/17 09:52:19;;;;;;;2.70;2.35;;;24.50;63.80;;;;;;5023664;28;20053;-56
2023/08/17 09:54:47;;;;;;;3.15;2.60;;;24.50;63.80;;;;;;5023480;28;20065;-57
2023/08/17 09:57:15;;;;;;;3.88;2.80;;;24.50;63.60;;;;;;5022322;28;20053;-56
2023/08/17 09:59:43;;;;;;;3.13;2.80;;;24.50;63.40;;;;;;5024192;28;20049;-56
2023/08/17 10:02:19;;;;;;;3.22;2.67;;;24.60;63.40;;;;;;5022942;28;20405;-57
2023/08/17 10:04:52;;;;;;;2.83;2.60;;;24.70;63.30;;;;;;5024340;28;20057;-57
2023/08/17 10:07:20;;;;;;;3.47;2.85;;;24.70;63.10;;;;;;5024781;28;20060;-57
2023/08/17 10:09:55;;;;;;;3.47;2.78;;;24.70;62.80;;;;;;5023711;28;20719;-56
2023/08/17 10:12:27;;;;;;;3.17;2.58;;;24.70;62.60;;;;;;5021342;28;20060;-58
2023/08/17 10:15:03;;;;;;;3.38;2.97;;;24.80;62.70;;;;;;5022932;28;20057;-57
2023/08/17 10:17:36;;;;;;;4.65;2.78;;;24.80;62.50;;;;;;5024213;28;20052;-57
2023/08/17 10:20:04;;;;;;;4.50;2.92;;;24.80;62.40;;;;;;5024081;28;20076;-57
2023/08/17 10:22:38;;;;;;;3.45;2.60;;;24.80;62.60;;;;;;5024676;28;20057;-55
2023/08/17 10:25:11;;;;;;;3.85;2.88;;;24.90;62.50;;;;;;5024886;28;20056;-57
2023/08/17 10:27:39;;;;;;;3.58;2.58;;;24.90;62.50;;;;;;5021543;28;20485;-57
2023/08/17 10:30:11;;;;;;;3.75;3.00;;;25.00;62.50;;;;;;5022605;28;20057;-56
2023/08/17 10:32:38;;;;;;;3.05;2.53;;;25.00;62.10;;;;;;5022806;28;20511;-57
2023/08/17 10:35:07;;;;;;;2.53;2.33;;;25.00;62.10;;;;;;5024034;28;20123;-57
2023/08/17 10:37:35;;;;;;;3.45;2.50;;;25.00;61.80;;;;;;5021965;28;20508;-56
2023/08/17 10:40:04;;;;;;;3.13;2.70;;;25.10;61.60;;;;;;5024185;28;20401;-55
2023/08/17 10:42:32;;;;;;;3.33;2.70;;;25.10;61.50;;;;;;5020423;28;20501;-55
2023/08/17 10:45:01;;;;;;;3.30;2.60;;;25.10;61.30;;;;;;5023425;28;20049;-55
2023/08/17 10:47:32;;;;;;;3.33;2.80;;;25.20;61.10;;;;;;5022920;28;20065;-56
2023/08/17 10:50:02;;;;;;;3.22;2.60;;;25.20;60.90;;;;;;5022798;28;20058;-56
2023/08/17 10:52:32;;;;;;;4.80;3.05;;;25.20;61.00;;;;;;5023436;28;20187;-57
2023/08/17 10:55:06;;;;;;;3.25;2.35;;;25.20;61.50;;;;;;5022488;28;20060;-56
2023/08/17 10:57:35;;;;;;;3.70;2.92;;;25.20;60.40;;;;;;5021045;28;20069;-55
2023/08/17 11:00:15;;;;;;;2.70;2.50;;;25.20;60.50;;;;;;5022049;28;20535;-56
2023/08/17 11:02:44;;;;;;;3.38;2.63;;;25.20;60.10;;;;;;5022940;28;20053;-57
2023/08/17 11:05:13;;;;;;;3.17;2.88;;;25.20;60.10;;;;;;5023155;28;20053;-55
2023/08/17 11:07:42;;;;;;;3.38;2.60;;;25.30;60.10;;;;;;5021493;28;20057;-56
2023/08/17 11:10:13;;;;;;;2.72;2.20;;;25.30;60.30;;;;;;5021583;28;20378;-56
2023/08/17 11:12:43;;;;;;;4.10;2.38;;;25.30;60.30;;;;;;5022075;28;20135;-54
2023/08/17 11:15:10;;;;;;;4.35;2.85;;;25.30;60.20;;;;;;5021515;28;20050;-56
2023/08/17 11:17:38;;;;;;;6.07;2.90;;;25.40;60.50;;;;;;5019334;28;20061;-56
2023/08/17 11:20:09;;;;;;;2.83;2.53;;;25.40;60.50;;;;;;5023281;28;20139;-56
2023/08/17 11:22:36;;;;;;;3.03;2.55;;;25.40;60.40;;;;;;5022991;28;20060;-57
2023/08/17 11:25:05;;;;;;;2.20;2.00;;;25.50;60.20;;;;;;5022236;28;20087;-55
2023/08/17 11:27:33;;;;;;;3.67;2.30;;;25.50;60.00;;;;;;5021357;28;21430;-55
2023/08/17 11:30:00;;;;;;;2.65;2.25;;;25.50;59.80;;;;;;5021476;28;20060;-55
2023/08/17 11:32:27;;;;;;;2.72;2.25;;;25.50;59.80;;;;;;5023011;28;20477;-57
2023/08/17 11:34:54;;;;;;;2.13;1.90;;;25.50;59.60;;;;;;5022924;28;20052;-57
2023/08/17 11:37:23;;;;;;;3.72;2.22;;;25.60;59.70;;;;;;5022693;28;20057;-57
2023/08/17 11:39:51;;;;;;;3.80;2.35;;;25.60;59.70;;;;;;5024509;28;20080;-55
2023/08/17 11:42:18;;;;;;;2.90;2.00;;;25.60;59.60;;;;;;5020975;28;20061;-55
2023/08/17 11:44:46;;;;;;;3.10;2.40;;;25.60;59.50;;;;;;5021789;28;20061;-56
2023/08/17 11:47:13;;;;;;;2.42;2.22;;;25.60;59.40;;;;;;5020619;28;20049;-57
2023/08/17 11:49:40;;;;;;;2.75;2.33;;;25.60;59.40;;;;;;5021966;28;20057;-58
2023/08/17 11:52:10;;;;;;;2.47;2.28;;;25.70;59.30;;;;;;5021169;28;20049;-57
2023/08/17 11:54:42;;;;;;;3.05;2.50;;;25.70;59.20;;;;;;5022247;28;20088;-57
2023/08/17 11:57:09;;;;;;;2.30;2.10;;;25.80;58.70;;;;;;5020103;28;20057;-57
2023/08/17 11:59:37;;;;;;;2.90;2.30;;;25.80;58.40;;;;;;5021058;28;20385;-56
2023/08/17 12:02:04;;;;;;;3.70;2.10;;;25.80;58.70;;;;;;5021780;28;20057;-57
2023/08/17 12:04:33;;;;;;;3.30;2.28;;;25.80;58.70;;;;;;5022604;28;20055;-56
2023/08/17 12:07:00;;;;;;;3.78;1.95;;;25.80;58.60;;;;;;5022641;28;20049;-56
2023/08/17 12:09:28;;;;;;;4.25;2.10;;;25.80;58.80;;;;;;5021882;28;20053;-56
2023/08/17 12:12:01;;;;;;;3.45;1.98;;;25.80;58.20;;;;;;5020684;28;20053;-57
2023/08/17 12:14:28;;;;;;;2.80;1.80;;;25.90;58.30;;;;;;5021303;28;20064;-58
2023/08/17 12:16:56;;;;;;;2.03;1.52;;;25.90;57.80;;;;;;5022565;28;20049;-56
2023/08/17 12:19:26;;;;;;;1.80;1.35;;;26.00;58.00;;;;;;5025498;28;20072;-56
2023/08/17 12:21:53;;;;;;;2.35;2.00;;;26.00;57.90;;;;;;5025633;28;20395;-57
2023/08/17 12:24:20;;;;;;;3.08;2.10;;;26.10;57.30;;;;;;5026052;28;20080;-58
2023/08/17 12:26:48;;;;;;;2.97;1.92;;;26.10;57.40;;;;;;5024667;28;20049;-57
2023/08/17 12:29:16;;;;;;;3.33;2.33;;;26.10;57.70;;;;;;5025163;28;20152;-56
2023/08/17 12:31:45;;;;;;;3.72;2.45;;;26.10;56.90;;;;;;5026392;28;20057;-57
2023/08/17 12:34:12;;;;;;;2.47;1.98;;;26.20;57.00;;;;;;5025827;28;20061;-57
2023/08/17 12:36:39;;;;;;;4.10;2.78;;;26.20;57.30;;;;;;5025383;28;20061;-57
2023/08/17 12:39:07;;;;;;;4.95;1.92;;;26.10;56.40;;;;;;5026403;28;20064;-57
2023/08/17 12:41:34;;;;;;;3.05;2.22;;;26.10;56.20;;;;;;5025140;28;20057;-58
2023/08/17 12:44:01;;;;;;;6.35;2.63;;;26.10;56.60;;;;;;5026156;28;20048;-56
2023/08/17 12:46:32;;;;;;;4.93;2.88;;;26.10;56.50;;;;;;5024991;28;20049;-58
2023/08/17 12:49:00;;;;;;;4.15;2.75;;;26.00;56.30;;;;;;5025341;28;20061;-57
2023/08/17 12:51:27;;;;;;;5.78;2.90;;;26.00;56.70;;;;;;5027211;28;20049;-57
2023/08/17 12:53:54;;;;;;;5.18;2.90;;;25.90;56.60;;;;;;5025491;28;20360;-56
2023/08/17 12:56:21;;;;;;;5.35;3.05;;;25.90;56.90;;;;;;5025230;28;20060;-57
2023/08/17 12:58:49;;;;;;;6.00;3.67;;;25.90;57.30;;;;;;5024456;28;20056;-57
2023/08/17 13:01:16;;;;;;;6.22;3.40;;;25.80;57.30;;;;;;5025262;28;20397;-58
2023/08/17 13:03:45;;;;;;;3.92;3.22;;;25.80;57.30;;;;;;5026829;28;20050;-57
2023/08/17 13:06:12;;;;;;;3.50;2.78;;;25.80;57.10;;;;;;5026179;28;20057;-56
2023/08/17 13:08:39;;;;;;;2.92;2.40;;;25.80;57.10;;;;;;5023998;28;20413;-56
2023/08/17 13:11:06;;;;;;;3.17;2.75;;;25.80;57.40;;;;;;5022400;28;20056;-58